sensor_id;sensor_type;location;lat;lon;timestamp;P1;durP1;ratioP1;P2;durP2;ratioP2
32663;SDS011;19847;48.670;9.242;2022-07-10T00:00:55;6.47;;;3.33;;
32663;SDS011;19847;48.670;9.242;2022-07-10T00:04:19;8.10;;;3.28;;
32663;SDS011;19847;48.670;9.242;2022-07-10T00:07:41;5.10;;;3.03;;
32663;SDS011;19847;48.670;9.242;2022-07-10T00:11:03;4.63;;;2.95;;
32663;SDS011;19847;48.670;9.242;2022-07-10T00:14:27;3.63;;;2.45;;
32663;SDS011;19847;48.670;9.242;2022-07-10T00:17:49;5.10;;;2.90;;
32663;SDS011;19847;48.670;9.242;2022-07-10T00:21:11;4.15;;;2.97;;
32663;SDS011;19847;48.670;9.242;2022-07-10T00:24:33;5.97;;;3.13;;
32663;SDS011;19847;48.670;9.242;2022-07-10T00:27:55;5.35;;;3.22;;
32663;SDS011;19847;48.670;9.242;2022-07-10T00:31:19;3.83;;;2.65;;
32663;SDS011;19847;48.670;9.242;2022-07-10T00:34:41;4.22;;;2.80;;
32663;SDS011;19847;48.670;9.242;2022-07-10T00:38:05;4.88;;;2.10;;
32663;SDS011;19847;48.670;9.242;2022-07-10T00:41:27;9.82;;;3.05;;
32663;SDS011;19847;48.670;9.242;2022-07-10T00:44:52;2.85;;;2.60;;
32663;SDS011;19847;48.670;9.242;2022-07-10T00:48:15;2.90;;;2.60;;
32663;SDS011;19847;48.670;9.242;2022-07-10T00:51:38;5.90;;;2.60;;
32663;SDS011;19847;48.670;9.242;2022-07-10T00:55:06;3.58;;;2.90;;
32663;SDS011;19847;48.670;9.242;2022-07-10T00:58:30;5.57;;;3.20;;
32663;SDS011;19847;48.670;9.242;2022-07-10T01:01:58;3.67;;;2.97;;
32663;SDS011;19847;48.670;9.242;2022-07-10T01:05:24;6.22;;;3.28;;
32663;SDS011;19847;48.670;9.242;2022-07-10T01:08:46;4.95;;;2.95;;
32663;SDS011;19847;48.670;9.242;2022-07-10T01:12:08;9.57;;;3.78;;
32663;SDS011;19847;48.670;9.242;2022-07-10T01:15:32;5.13;;;3.10;;
32663;SDS011;19847;48.670;9.242;2022-07-10T01:18:54;2.80;;;2.38;;
32663;SDS011;19847;48.670;9.242;2022-07-10T01:22:17;6.00;;;2.92;;
32663;SDS011;19847;48.670;9.242;2022-07-10T01:25:39;9.80;;;4.32;;
32663;SDS011;19847;48.670;9.242;2022-07-10T01:29:03;6.47;;;3.50;;
32663;SDS011;19847;48.670;9.242;2022-07-10T01:32:26;9.73;;;3.70;;
32663;SDS011;19847;48.670;9.242;2022-07-10T01:35:48;10.40;;;4.22;;
32663;SDS011;19847;48.670;9.242;2022-07-10T01:39:12;3.85;;;3.47;;
32663;SDS011;19847;48.670;9.242;2022-07-10T01:42:34;5.22;;;3.67;;
32663;SDS011;19847;48.670;9.242;2022-07-10T01:45:56;4.00;;;3.60;;
32663;SDS011;19847;48.670;9.242;2022-07-10T01:49:19;4.20;;;3.58;;
32663;SDS011;19847;48.670;9.242;2022-07-10T01:52:41;4.32;;;3.85;;
32663;SDS011;19847;48.670;9.242;2022-07-10T01:56:05;5.40;;;3.70;;
32663;SDS011;19847;48.670;9.242;2022-07-10T01:59:29;6.80;;;3.53;;
32663;SDS011;19847;48.670;9.242;2022-07-10T02:02:51;8.50;;;3.33;;
32663;SDS011;19847;48.670;9.242;2022-07-10T02:06:14;4.60;;;4.18;;
32663;SDS011;19847;48.670;9.242;2022-07-10T02:09:36;4.00;;;3.60;;
32663;SDS011;19847;48.670;9.242;2022-07-10T02:12:59;3.83;;;3.45;;
32663;SDS011;19847;48.670;9.242;2022-07-10T02:16:21;5.45;;;3.85;;
32663;SDS011;19847;48.670;9.242;2022-07-10T02:19:43;9.23;;;4.50;;
32663;SDS011;19847;48.670;9.242;2022-07-10T02:23:05;4.40;;;4.00;;
32663;SDS011;19847;48.670;9.242;2022-07-10T02:26:27;6.10;;;4.25;;
32663;SDS011;19847;48.670;9.242;2022-07-10T02:29:51;10.07;;;4.60;;
32663;SDS011;19847;48.670;9.242;2022-07-10T02:33:13;4.47;;;4.07;;
32663;SDS011;19847;48.670;9.242;2022-07-10T02:36:35;5.38;;;3.75;;
32663;SDS011;19847;48.670;9.242;2022-07-10T02:39:57;4.95;;;4.55;;
32663;SDS011;19847;48.670;9.242;2022-07-10T02:43:19;7.18;;;4.88;;
32663;SDS011;19847;48.670;9.242;2022-07-10T02:46:42;7.65;;;4.65;;
32663;SDS011;19847;48.670;9.242;2022-07-10T02:50:05;5.72;;;5.00;;
32663;SDS011;19847;48.670;9.242;2022-07-10T02:53:28;8.80;;;5.97;;
32663;SDS011;19847;48.670;9.242;2022-07-10T02:56:50;16.95;;;6.78;;
32663;SDS011;19847;48.670;9.242;2022-07-10T03:00:12;11.73;;;8.07;;
32663;SDS011;19847;48.670;9.242;2022-07-10T03:03:36;9.55;;;8.55;;
32663;SDS011;19847;48.670;9.242;2022-07-10T03:06:58;9.45;;;8.52;;
32663;SDS011;19847;48.670;9.242;2022-07-10T03:10:20;17.40;;;10.32;;
32663;SDS011;19847;48.670;9.242;2022-07-10T03:13:42;11.70;;;9.63;;
32663;SDS011;19847;48.670;9.242;2022-07-10T03:17:04;11.80;;;9.55;;
32663;SDS011;19847;48.670;9.242;2022-07-10T03:20:27;16.70;;;12.60;;
32663;SDS011;19847;48.670;9.242;2022-07-10T03:23:50;17.20;;;12.02;;
32663;SDS011;19847;48.670;9.242;2022-07-10T03:27:12;19.20;;;12.27;;
32663;SDS011;19847;48.670;9.242;2022-07-10T03:30:34;13.15;;;10.77;;
32663;SDS011;19847;48.670;9.242;2022-07-10T03:33:56;14.32;;;10.30;;
32663;SDS011;19847;48.670;9.242;2022-07-10T03:37:19;13.10;;;10.77;;
32663;SDS011;19847;48.670;9.242;2022-07-10T03:40:41;11.63;;;10.40;;
32663;SDS011;19847;48.670;9.242;2022-07-10T03:44:04;12.68;;;10.05;;
32663;SDS011;19847;48.670;9.242;2022-07-10T03:47:26;11.38;;;10.27;;
32663;SDS011;19847;48.670;9.242;2022-07-10T03:50:49;9.43;;;8.43;;
32663;SDS011;19847;48.670;9.242;2022-07-10T03:54:13;10.77;;;9.65;;
32663;SDS011;19847;48.670;9.242;2022-07-10T03:57:35;10.27;;;7.90;;
32663;SDS011;19847;48.670;9.242;2022-07-10T04:00:57;12.18;;;8.07;;
32663;SDS011;19847;48.670;9.242;2022-07-10T04:04:19;9.75;;;7.82;;
32663;SDS011;19847;48.670;9.242;2022-07-10T04:07:41;13.75;;;8.13;;
32663;SDS011;19847;48.670;9.242;2022-07-10T04:11:05;9.25;;;7.57;;
32663;SDS011;19847;48.670;9.242;2022-07-10T04:14:27;9.15;;;7.38;;
32663;SDS011;19847;48.670;9.242;2022-07-10T04:17:49;13.82;;;7.60;;
32663;SDS011;19847;48.670;9.242;2022-07-10T04:21:12;11.73;;;8.18;;
32663;SDS011;19847;48.670;9.242;2022-07-10T04:24:35;9.82;;;7.20;;
32663;SDS011;19847;48.670;9.242;2022-07-10T04:27:58;9.50;;;7.38;;
32663;SDS011;19847;48.670;9.242;2022-07-10T04:31:20;11.75;;;7.63;;
32663;SDS011;19847;48.670;9.242;2022-07-10T04:34:42;15.30;;;7.53;;
32663;SDS011;19847;48.670;9.242;2022-07-10T04:38:05;12.98;;;7.35;;
32663;SDS011;19847;48.670;9.242;2022-07-10T04:41:27;10.57;;;8.02;;
32663;SDS011;19847;48.670;9.242;2022-07-10T04:44:50;9.57;;;7.95;;
32663;SDS011;19847;48.670;9.242;2022-07-10T04:48:12;11.95;;;7.90;;
32663;SDS011;19847;48.670;9.242;2022-07-10T04:51:34;19.33;;;7.28;;
32663;SDS011;19847;48.670;9.242;2022-07-10T04:54:56;14.70;;;7.55;;
32663;SDS011;19847;48.670;9.242;2022-07-10T04:58:18;8.48;;;7.25;;
32663;SDS011;19847;48.670;9.242;2022-07-10T05:01:41;8.52;;;5.13;;
32663;SDS011;19847;48.670;9.242;2022-07-10T05:05:04;8.27;;;5.25;;
32663;SDS011;19847;48.670;9.242;2022-07-10T05:08:27;6.50;;;5.25;;
32663;SDS011;19847;48.670;9.242;2022-07-10T05:11:49;5.97;;;4.97;;
32663;SDS011;19847;48.670;9.242;2022-07-10T05:15:11;6.45;;;4.55;;
32663;SDS011;19847;48.670;9.242;2022-07-10T05:18:34;5.93;;;4.38;;
32663;SDS011;19847;48.670;9.242;2022-07-10T05:21:56;11.15;;;4.47;;
32663;SDS011;19847;48.670;9.242;2022-07-10T05:25:19;5.28;;;4.35;;
32663;SDS011;19847;48.670;9.242;2022-07-10T05:28:41;5.82;;;3.70;;
32663;SDS011;19847;48.670;9.242;2022-07-10T05:32:03;11.63;;;4.00;;
32663;SDS011;19847;48.670;9.242;2022-07-10T05:35:27;4.65;;;3.58;;
32663;SDS011;19847;48.670;9.242;2022-07-10T05:38:49;6.35;;;3.58;;
32663;SDS011;19847;48.670;9.242;2022-07-10T05:42:11;14.57;;;3.83;;
32663;SDS011;19847;48.670;9.242;2022-07-10T05:45:33;9.27;;;4.07;;
32663;SDS011;19847;48.670;9.242;2022-07-10T05:48:55;10.45;;;3.58;;
32663;SDS011;19847;48.670;9.242;2022-07-10T05:52:18;7.47;;;3.30;;
32663;SDS011;19847;48.670;9.242;2022-07-10T05:55:41;5.88;;;3.28;;
32663;SDS011;19847;48.670;9.242;2022-07-10T05:59:03;9.15;;;3.10;;
32663;SDS011;19847;48.670;9.242;2022-07-10T06:02:25;5.63;;;3.25;;
32663;SDS011;19847;48.670;9.242;2022-07-10T06:05:48;3.33;;;2.28;;
32663;SDS011;19847;48.670;9.242;2022-07-10T06:09:11;3.72;;;1.98;;
32663;SDS011;19847;48.670;9.242;2022-07-10T06:12:33;2.20;;;1.33;;
32663;SDS011;19847;48.670;9.242;2022-07-10T06:15:55;4.15;;;1.88;;
32663;SDS011;19847;48.670;9.242;2022-07-10T06:19:17;6.70;;;1.55;;
32663;SDS011;19847;48.670;9.242;2022-07-10T06:22:40;7.10;;;1.98;;
32663;SDS011;19847;48.670;9.242;2022-07-10T06:26:03;2.05;;;1.55;;
32663;SDS011;19847;48.670;9.242;2022-07-10T06:29:25;3.40;;;1.63;;
32663;SDS011;19847;48.670;9.242;2022-07-10T06:32:47;3.63;;;1.88;;
32663;SDS011;19847;48.670;9.242;2022-07-10T06:36:09;2.83;;;1.35;;
32663;SDS011;19847;48.670;9.242;2022-07-10T06:39:33;2.88;;;1.30;;
32663;SDS011;19847;48.670;9.242;2022-07-10T06:42:57;7.97;;;1.45;;
32663;SDS011;19847;48.670;9.242;2022-07-10T06:46:19;2.08;;;1.27;;
32663;SDS011;19847;48.670;9.242;2022-07-10T06:49:41;4.88;;;1.50;;
32663;SDS011;19847;48.670;9.242;2022-07-10T06:53:04;5.85;;;1.45;;
32663;SDS011;19847;48.670;9.242;2022-07-10T06:56:26;3.05;;;1.50;;
32663;SDS011;19847;48.670;9.242;2022-07-10T06:59:50;4.07;;;1.42;;
32663;SDS011;19847;48.670;9.242;2022-07-10T07:03:12;10.23;;;1.48;;
32663;SDS011;19847;48.670;9.242;2022-07-10T07:06:35;6.22;;;1.48;;
32663;SDS011;19847;48.670;9.242;2022-07-10T07:09:57;2.35;;;1.70;;
32663;SDS011;19847;48.670;9.242;2022-07-10T07:13:19;6.80;;;1.90;;
32663;SDS011;19847;48.670;9.242;2022-07-10T07:16:43;7.50;;;1.90;;
32663;SDS011;19847;48.670;9.242;2022-07-10T07:20:05;1.98;;;1.30;;
32663;SDS011;19847;48.670;9.242;2022-07-10T07:23:27;1.52;;;1.10;;
32663;SDS011;19847;48.670;9.242;2022-07-10T07:26:49;1.17;;;0.93;;
32663;SDS011;19847;48.670;9.242;2022-07-10T07:30:12;4.90;;;1.88;;
32663;SDS011;19847;48.670;9.242;2022-07-10T07:33:37;3.67;;;1.50;;
32663;SDS011;19847;48.670;9.242;2022-07-10T07:36:59;4.13;;;1.38;;
32663;SDS011;19847;48.670;9.242;2022-07-10T07:40:22;5.25;;;1.20;;
32663;SDS011;19847;48.670;9.242;2022-07-10T07:43:44;3.40;;;1.10;;
32663;SDS011;19847;48.670;9.242;2022-07-10T07:47:06;5.30;;;1.60;;
32663;SDS011;19847;48.670;9.242;2022-07-10T07:50:30;7.50;;;1.52;;
32663;SDS011;19847;48.670;9.242;2022-07-10T07:53:53;5.00;;;1.52;;
32663;SDS011;19847;48.670;9.242;2022-07-10T07:57:15;2.90;;;1.17;;
32663;SDS011;19847;48.670;9.242;2022-07-10T08:00:37;11.98;;;1.73;;
32663;SDS011;19847;48.670;9.242;2022-07-10T08:03:59;5.20;;;2.00;;
32663;SDS011;19847;48.670;9.242;2022-07-10T08:07:34;6.95;;;1.50;;
32663;SDS011;19847;48.670;9.242;2022-07-10T08:10:57;2.97;;;1.27;;
32663;SDS011;19847;48.670;9.242;2022-07-10T08:14:19;4.07;;;1.63;;
32663;SDS011;19847;48.670;9.242;2022-07-10T08:17:41;3.55;;;1.33;;
32663;SDS011;19847;48.670;9.242;2022-07-10T08:21:03;2.35;;;1.63;;
32663;SDS011;19847;48.670;9.242;2022-07-10T08:24:27;1.90;;;1.30;;
32663;SDS011;19847;48.670;9.242;2022-07-10T08:27:49;5.88;;;1.45;;
32663;SDS011;19847;48.670;9.242;2022-07-10T08:31:11;5.65;;;1.25;;
32663;SDS011;19847;48.670;9.242;2022-07-10T08:34:36;4.22;;;1.55;;
32663;SDS011;19847;48.670;9.242;2022-07-10T08:37:58;4.07;;;1.42;;
32663;SDS011;19847;48.670;9.242;2022-07-10T08:41:22;2.90;;;1.40;;
32663;SDS011;19847;48.670;9.242;2022-07-10T08:44:46;2.65;;;1.42;;
32663;SDS011;19847;48.670;9.242;2022-07-10T08:48:08;4.68;;;1.50;;
32663;SDS011;19847;48.670;9.242;2022-07-10T08:51:35;4.13;;;1.02;;
32663;SDS011;19847;48.670;9.242;2022-07-10T08:54:57;2.15;;;1.00;;
32663;SDS011;19847;48.670;9.242;2022-07-10T08:58:22;7.78;;;1.60;;
32663;SDS011;19847;48.670;9.242;2022-07-10T09:01:45;4.23;;;1.20;;
32663;SDS011;19847;48.670;9.242;2022-07-10T09:05:08;2.92;;;1.40;;
32663;SDS011;19847;48.670;9.242;2022-07-10T09:08:30;4.93;;;1.20;;
32663;SDS011;19847;48.670;9.242;2022-07-10T09:11:54;6.55;;;1.25;;
32663;SDS011;19847;48.670;9.242;2022-07-10T09:15:19;3.28;;;1.50;;
32663;SDS011;19847;48.670;9.242;2022-07-10T09:18:43;3.35;;;1.30;;
32663;SDS011;19847;48.670;9.242;2022-07-10T09:22:06;6.05;;;1.10;;
32663;SDS011;19847;48.670;9.242;2022-07-10T09:25:32;4.20;;;1.30;;
32663;SDS011;19847;48.670;9.242;2022-07-10T09:29:04;2.20;;;1.00;;
32663;SDS011;19847;48.670;9.242;2022-07-10T09:32:28;4.28;;;1.45;;
32663;SDS011;19847;48.670;9.242;2022-07-10T09:35:54;3.55;;;1.10;;
32663;SDS011;19847;48.670;9.242;2022-07-10T09:39:21;3.30;;;1.65;;
32663;SDS011;19847;48.670;9.242;2022-07-10T09:42:43;3.42;;;1.10;;
32663;SDS011;19847;48.670;9.242;2022-07-10T09:46:06;6.13;;;1.50;;
32663;SDS011;19847;48.670;9.242;2022-07-10T09:49:31;4.67;;;1.30;;
32663;SDS011;19847;48.670;9.242;2022-07-10T09:52:53;10.10;;;1.75;;
32663;SDS011;19847;48.670;9.242;2022-07-10T09:56:16;3.55;;;1.17;;
32663;SDS011;19847;48.670;9.242;2022-07-10T09:59:38;3.72;;;1.55;;
32663;SDS011;19847;48.670;9.242;2022-07-10T10:03:02;4.65;;;1.13;;
32663;SDS011;19847;48.670;9.242;2022-07-10T10:06:26;2.58;;;1.10;;
32663;SDS011;19847;48.670;9.242;2022-07-10T10:09:51;3.92;;;1.35;;
32663;SDS011;19847;48.670;9.242;2022-07-10T10:13:17;2.88;;;1.05;;
32663;SDS011;19847;48.670;9.242;2022-07-10T10:16:40;3.15;;;1.27;;
32663;SDS011;19847;48.670;9.242;2022-07-10T10:20:06;2.08;;;1.10;;
32663;SDS011;19847;48.670;9.242;2022-07-10T10:23:31;6.45;;;1.10;;
32663;SDS011;19847;48.670;9.242;2022-07-10T10:26:54;5.70;;;1.55;;
32663;SDS011;19847;48.670;9.242;2022-07-10T10:30:16;6.72;;;1.40;;
32663;SDS011;19847;48.670;9.242;2022-07-10T10:33:42;6.25;;;0.90;;
32663;SDS011;19847;48.670;9.242;2022-07-10T10:37:05;3.45;;;1.10;;
32663;SDS011;19847;48.670;9.242;2022-07-10T10:40:32;3.55;;;1.35;;
32663;SDS011;19847;48.670;9.242;2022-07-10T10:47:56;4.25;;;1.13;;
32663;SDS011;19847;48.670;9.242;2022-07-10T10:55:19;5.97;;;1.50;;
32663;SDS011;19847;48.670;9.242;2022-07-10T10:58:43;3.40;;;1.25;;
32663;SDS011;19847;48.670;9.242;2022-07-10T11:02:20;7.25;;;1.50;;
32663;SDS011;19847;48.670;9.242;2022-07-10T11:05:43;3.90;;;1.00;;
32663;SDS011;19847;48.670;9.242;2022-07-10T11:09:20;2.63;;;1.10;;
32663;SDS011;19847;48.670;9.242;2022-07-10T11:16:27;3.80;;;1.20;;
32663;SDS011;19847;48.670;9.242;2022-07-10T11:19:52;2.10;;;0.95;;
32663;SDS011;19847;48.670;9.242;2022-07-10T11:23:17;2.75;;;0.98;;
32663;SDS011;19847;48.670;9.242;2022-07-10T11:27:02;4.63;;;1.13;;
32663;SDS011;19847;48.670;9.242;2022-07-10T11:30:40;2.78;;;1.10;;
32663;SDS011;19847;48.670;9.242;2022-07-10T11:34:06;3.55;;;0.90;;
32663;SDS011;19847;48.670;9.242;2022-07-10T11:37:28;4.05;;;1.35;;
32663;SDS011;19847;48.670;9.242;2022-07-10T11:40:50;3.75;;;0.98;;
32663;SDS011;19847;48.670;9.242;2022-07-10T11:44:13;3.85;;;1.50;;
32663;SDS011;19847;48.670;9.242;2022-07-10T11:47:37;6.35;;;1.48;;
32663;SDS011;19847;48.670;9.242;2022-07-10T11:51:01;3.35;;;1.15;;
32663;SDS011;19847;48.670;9.242;2022-07-10T11:54:23;2.88;;;0.85;;
32663;SDS011;19847;48.670;9.242;2022-07-10T11:57:45;2.20;;;1.38;;
32663;SDS011;19847;48.670;9.242;2022-07-10T12:01:07;2.15;;;1.10;;
32663;SDS011;19847;48.670;9.242;2022-07-10T12:04:30;4.25;;;1.42;;
32663;SDS011;19847;48.670;9.242;2022-07-10T12:07:53;1.38;;;0.70;;
32663;SDS011;19847;48.670;9.242;2022-07-10T12:11:16;3.72;;;0.90;;
32663;SDS011;19847;48.670;9.242;2022-07-10T12:14:39;1.95;;;0.85;;
32663;SDS011;19847;48.670;9.242;2022-07-10T12:18:01;4.95;;;1.27;;
32663;SDS011;19847;48.670;9.242;2022-07-10T12:21:23;3.92;;;0.90;;
32663;SDS011;19847;48.670;9.242;2022-07-10T12:24:47;2.78;;;0.90;;
32663;SDS011;19847;48.670;9.242;2022-07-10T12:28:10;6.80;;;1.50;;
32663;SDS011;19847;48.670;9.242;2022-07-10T12:31:33;1.55;;;0.65;;
32663;SDS011;19847;48.670;9.242;2022-07-10T12:34:58;6.43;;;1.27;;
32663;SDS011;19847;48.670;9.242;2022-07-10T12:38:20;2.80;;;0.70;;
32663;SDS011;19847;48.670;9.242;2022-07-10T12:41:58;2.15;;;0.82;;
32663;SDS011;19847;48.670;9.242;2022-07-10T12:45:21;3.95;;;0.90;;
32663;SDS011;19847;48.670;9.242;2022-07-10T12:48:44;2.35;;;0.88;;
32663;SDS011;19847;48.670;9.242;2022-07-10T12:52:24;1.52;;;1.08;;
32663;SDS011;19847;48.670;9.242;2022-07-10T12:55:52;4.32;;;1.23;;
32663;SDS011;19847;48.670;9.242;2022-07-10T12:59:16;3.25;;;0.63;;
32663;SDS011;19847;48.670;9.242;2022-07-10T13:02:38;2.97;;;0.93;;
32663;SDS011;19847;48.670;9.242;2022-07-10T13:06:00;4.55;;;1.17;;
32663;SDS011;19847;48.670;9.242;2022-07-10T13:09:23;1.48;;;0.80;;
32663;SDS011;19847;48.670;9.242;2022-07-10T13:12:45;5.60;;;0.73;;
32663;SDS011;19847;48.670;9.242;2022-07-10T13:16:09;1.00;;;0.60;;
32663;SDS011;19847;48.670;9.242;2022-07-10T13:19:31;2.47;;;0.65;;
32663;SDS011;19847;48.670;9.242;2022-07-10T13:22:54;7.00;;;1.23;;
32663;SDS011;19847;48.670;9.242;2022-07-10T13:26:16;2.55;;;0.82;;
32663;SDS011;19847;48.670;9.242;2022-07-10T13:29:38;3.53;;;0.75;;
32663;SDS011;19847;48.670;9.242;2022-07-10T13:33:01;2.05;;;0.80;;
32663;SDS011;19847;48.670;9.242;2022-07-10T13:36:24;1.50;;;0.82;;
32663;SDS011;19847;48.670;9.242;2022-07-10T13:39:46;4.45;;;1.00;;
32663;SDS011;19847;48.670;9.242;2022-07-10T13:43:08;2.42;;;0.70;;
32663;SDS011;19847;48.670;9.242;2022-07-10T13:46:30;3.20;;;1.02;;
32663;SDS011;19847;48.670;9.242;2022-07-10T13:49:53;5.10;;;0.90;;
32663;SDS011;19847;48.670;9.242;2022-07-10T13:53:16;3.53;;;1.02;;
32663;SDS011;19847;48.670;9.242;2022-07-10T13:56:38;1.58;;;0.70;;
32663;SDS011;19847;48.670;9.242;2022-07-10T14:00:00;5.30;;;0.90;;
32663;SDS011;19847;48.670;9.242;2022-07-10T14:03:32;1.27;;;0.57;;
32663;SDS011;19847;48.670;9.242;2022-07-10T14:06:55;1.52;;;0.70;;
32663;SDS011;19847;48.670;9.242;2022-07-10T14:10:17;2.85;;;0.90;;
32663;SDS011;19847;48.670;9.242;2022-07-10T14:13:39;2.03;;;0.55;;
32663;SDS011;19847;48.670;9.242;2022-07-10T14:17:01;7.57;;;1.05;;
32663;SDS011;19847;48.670;9.242;2022-07-10T14:20:24;1.88;;;0.65;;
32663;SDS011;19847;48.670;9.242;2022-07-10T14:23:47;1.92;;;1.08;;
32663;SDS011;19847;48.670;9.242;2022-07-10T14:27:09;6.00;;;1.15;;
32663;SDS011;19847;48.670;9.242;2022-07-10T14:30:31;2.13;;;0.60;;
32663;SDS011;19847;48.670;9.242;2022-07-10T14:33:53;1.70;;;0.52;;
32663;SDS011;19847;48.670;9.242;2022-07-10T14:37:15;2.80;;;1.30;;
32663;SDS011;19847;48.670;9.242;2022-07-10T14:40:39;4.10;;;0.88;;
32663;SDS011;19847;48.670;9.242;2022-07-10T14:44:01;2.92;;;0.80;;
32663;SDS011;19847;48.670;9.242;2022-07-10T14:47:23;1.40;;;0.77;;
32663;SDS011;19847;48.670;9.242;2022-07-10T14:50:45;3.83;;;0.63;;
32663;SDS011;19847;48.670;9.242;2022-07-10T14:54:07;2.95;;;0.80;;
32663;SDS011;19847;48.670;9.242;2022-07-10T14:57:30;2.05;;;0.77;;
32663;SDS011;19847;48.670;9.242;2022-07-10T15:00:52;3.78;;;0.80;;
32663;SDS011;19847;48.670;9.242;2022-07-10T15:04:14;2.25;;;0.80;;
32663;SDS011;19847;48.670;9.242;2022-07-10T15:07:36;6.55;;;0.93;;
32663;SDS011;19847;48.670;9.242;2022-07-10T15:10:58;1.95;;;0.70;;
32663;SDS011;19847;48.670;9.242;2022-07-10T15:14:22;3.30;;;0.82;;
32663;SDS011;19847;48.670;9.242;2022-07-10T15:17:44;1.05;;;0.63;;
32663;SDS011;19847;48.670;9.242;2022-07-10T15:21:06;7.68;;;0.95;;
32663;SDS011;19847;48.670;9.242;2022-07-10T15:24:28;6.22;;;0.90;;
32663;SDS011;19847;48.670;9.242;2022-07-10T15:27:50;1.38;;;0.80;;
32663;SDS011;19847;48.670;9.242;2022-07-10T15:31:14;5.07;;;1.45;;
32663;SDS011;19847;48.670;9.242;2022-07-10T15:34:36;2.03;;;0.68;;
32663;SDS011;19847;48.670;9.242;2022-07-10T15:37:58;5.38;;;1.48;;
32663;SDS011;19847;48.670;9.242;2022-07-10T15:41:20;4.18;;;1.13;;
32663;SDS011;19847;48.670;9.242;2022-07-10T15:44:42;6.47;;;1.00;;
32663;SDS011;19847;48.670;9.242;2022-07-10T15:48:06;3.08;;;1.00;;
32663;SDS011;19847;48.670;9.242;2022-07-10T15:51:28;4.05;;;1.63;;
32663;SDS011;19847;48.670;9.242;2022-07-10T15:54:50;1.75;;;0.80;;
32663;SDS011;19847;48.670;9.242;2022-07-10T15:58:12;3.60;;;0.70;;
32663;SDS011;19847;48.670;9.242;2022-07-10T16:01:36;3.78;;;0.65;;
32663;SDS011;19847;48.670;9.242;2022-07-10T16:04:59;2.05;;;0.50;;
32663;SDS011;19847;48.670;9.242;2022-07-10T16:08:21;2.50;;;1.00;;
32663;SDS011;19847;48.670;9.242;2022-07-10T16:11:44;1.67;;;0.70;;
32663;SDS011;19847;48.670;9.242;2022-07-10T16:15:06;3.40;;;0.80;;
32663;SDS011;19847;48.670;9.242;2022-07-10T16:18:36;2.47;;;0.77;;
32663;SDS011;19847;48.670;9.242;2022-07-10T16:22:00;5.25;;;0.65;;
32663;SDS011;19847;48.670;9.242;2022-07-10T16:25:24;1.50;;;0.80;;
32663;SDS011;19847;48.670;9.242;2022-07-10T16:28:46;2.28;;;0.70;;
32663;SDS011;19847;48.670;9.242;2022-07-10T16:32:09;3.25;;;1.33;;
32663;SDS011;19847;48.670;9.242;2022-07-10T16:35:31;1.23;;;0.60;;
32663;SDS011;19847;48.670;9.242;2022-07-10T16:38:56;7.72;;;0.68;;
32663;SDS011;19847;48.670;9.242;2022-07-10T16:42:18;1.80;;;0.98;;
32663;SDS011;19847;48.670;9.242;2022-07-10T16:45:41;2.58;;;0.70;;
32663;SDS011;19847;48.670;9.242;2022-07-10T16:49:04;1.38;;;0.73;;
32663;SDS011;19847;48.670;9.242;2022-07-10T16:52:26;0.93;;;0.70;;
32663;SDS011;19847;48.670;9.242;2022-07-10T16:55:50;5.25;;;0.80;;
32663;SDS011;19847;48.670;9.242;2022-07-10T16:59:12;1.42;;;0.85;;
32663;SDS011;19847;48.670;9.242;2022-07-10T17:02:34;1.38;;;0.57;;
32663;SDS011;19847;48.670;9.242;2022-07-10T17:05:57;3.28;;;0.73;;
32663;SDS011;19847;48.670;9.242;2022-07-10T17:09:19;1.73;;;0.75;;
32663;SDS011;19847;48.670;9.242;2022-07-10T17:12:42;2.22;;;0.77;;
32663;SDS011;19847;48.670;9.242;2022-07-10T17:16:05;2.33;;;1.20;;
32663;SDS011;19847;48.670;9.242;2022-07-10T17:19:27;4.22;;;0.50;;
32663;SDS011;19847;48.670;9.242;2022-07-10T17:22:50;2.83;;;0.70;;
32663;SDS011;19847;48.670;9.242;2022-07-10T17:26:12;4.25;;;0.75;;
32663;SDS011;19847;48.670;9.242;2022-07-10T17:29:36;2.20;;;1.02;;
32663;SDS011;19847;48.670;9.242;2022-07-10T17:32:58;3.45;;;0.80;;
32663;SDS011;19847;48.670;9.242;2022-07-10T17:36:26;1.98;;;0.90;;
32663;SDS011;19847;48.670;9.242;2022-07-10T17:39:48;5.18;;;1.08;;
32663;SDS011;19847;48.670;9.242;2022-07-10T17:43:10;4.47;;;0.60;;
32663;SDS011;19847;48.670;9.242;2022-07-10T17:46:34;2.20;;;0.85;;
32663;SDS011;19847;48.670;9.242;2022-07-10T17:49:56;3.40;;;0.77;;
32663;SDS011;19847;48.670;9.242;2022-07-10T17:53:18;0.93;;;0.60;;
32663;SDS011;19847;48.670;9.242;2022-07-10T17:56:40;4.05;;;0.90;;
32663;SDS011;19847;48.670;9.242;2022-07-10T18:00:02;3.95;;;0.85;;
32663;SDS011;19847;48.670;9.242;2022-07-10T18:03:33;2.35;;;1.13;;
32663;SDS011;19847;48.670;9.242;2022-07-10T18:06:55;2.50;;;0.65;;
32663;SDS011;19847;48.670;9.242;2022-07-10T18:10:17;5.43;;;0.90;;
32663;SDS011;19847;48.670;9.242;2022-07-10T18:13:40;4.47;;;0.80;;
32663;SDS011;19847;48.670;9.242;2022-07-10T18:17:02;4.20;;;0.98;;
32663;SDS011;19847;48.670;9.242;2022-07-10T18:20:26;3.53;;;0.88;;
32663;SDS011;19847;48.670;9.242;2022-07-10T18:23:49;4.40;;;1.58;;
32663;SDS011;19847;48.670;9.242;2022-07-10T18:27:14;8.63;;;0.90;;
32663;SDS011;19847;48.670;9.242;2022-07-10T18:30:37;8.85;;;1.73;;
32663;SDS011;19847;48.670;9.242;2022-07-10T18:33:59;3.45;;;0.98;;
32663;SDS011;19847;48.670;9.242;2022-07-10T18:37:24;3.35;;;1.20;;
32663;SDS011;19847;48.670;9.242;2022-07-10T18:40:46;3.17;;;1.23;;
32663;SDS011;19847;48.670;9.242;2022-07-10T18:44:08;0.98;;;0.75;;
32663;SDS011;19847;48.670;9.242;2022-07-10T18:47:30;5.68;;;1.42;;
32663;SDS011;19847;48.670;9.242;2022-07-10T18:50:52;2.97;;;0.70;;
32663;SDS011;19847;48.670;9.242;2022-07-10T18:54:15;4.22;;;1.23;;
32663;SDS011;19847;48.670;9.242;2022-07-10T18:57:37;2.75;;;1.10;;
32663;SDS011;19847;48.670;9.242;2022-07-10T19:00:59;5.22;;;1.17;;
32663;SDS011;19847;48.670;9.242;2022-07-10T19:04:22;5.38;;;1.75;;
32663;SDS011;19847;48.670;9.242;2022-07-10T19:07:44;3.30;;;0.95;;
32663;SDS011;19847;48.670;9.242;2022-07-10T19:11:08;2.55;;;0.90;;
32663;SDS011;19847;48.670;9.242;2022-07-10T19:14:31;10.68;;;1.00;;
32663;SDS011;19847;48.670;9.242;2022-07-10T19:17:53;6.05;;;0.90;;
32663;SDS011;19847;48.670;9.242;2022-07-10T19:21:15;5.57;;;1.10;;
32663;SDS011;19847;48.670;9.242;2022-07-10T19:24:38;4.28;;;1.30;;
32663;SDS011;19847;48.670;9.242;2022-07-10T19:28:02;2.30;;;0.70;;
32663;SDS011;19847;48.670;9.242;2022-07-10T19:31:25;3.00;;;1.17;;
32663;SDS011;19847;48.670;9.242;2022-07-10T19:34:47;7.78;;;0.93;;
32663;SDS011;19847;48.670;9.242;2022-07-10T19:38:10;3.17;;;1.00;;
32663;SDS011;19847;48.670;9.242;2022-07-10T19:41:32;5.35;;;0.93;;
32663;SDS011;19847;48.670;9.242;2022-07-10T19:44:55;5.78;;;0.93;;
32663;SDS011;19847;48.670;9.242;2022-07-10T19:48:17;1.92;;;1.27;;
32663;SDS011;19847;48.670;9.242;2022-07-10T19:51:39;2.38;;;0.90;;
32663;SDS011;19847;48.670;9.242;2022-07-10T19:55:01;3.78;;;0.80;;
32663;SDS011;19847;48.670;9.242;2022-07-10T19:58:23;5.65;;;1.02;;
32663;SDS011;19847;48.670;9.242;2022-07-10T20:01:47;7.47;;;1.17;;
32663;SDS011;19847;48.670;9.242;2022-07-10T20:05:09;2.30;;;0.93;;
32663;SDS011;19847;48.670;9.242;2022-07-10T20:08:31;3.92;;;1.10;;
32663;SDS011;19847;48.670;9.242;2022-07-10T20:11:53;1.95;;;0.90;;
32663;SDS011;19847;48.670;9.242;2022-07-10T20:15:16;5.75;;;1.08;;
32663;SDS011;19847;48.670;9.242;2022-07-10T20:18:39;7.03;;;1.27;;
32663;SDS011;19847;48.670;9.242;2022-07-10T20:22:01;6.65;;;1.38;;
32663;SDS011;19847;48.670;9.242;2022-07-10T20:25:23;7.85;;;1.17;;
32663;SDS011;19847;48.670;9.242;2022-07-10T20:28:45;5.45;;;1.30;;
32663;SDS011;19847;48.670;9.242;2022-07-10T20:32:07;10.20;;;1.67;;